Time;durP1;ratioP1;P1;durP2;ratioP2;P2;SDS_P1;SDS_P2;PMS_P1;PMS_P2;Temp;Humidity;BMP_temperature;BMP_pressure;BME280_temperature;BME280_humidity;BME280_pressure;Samples;Min_cycle;Max_cycle;Signal;HPM_P1;HPM_P2
2023/03/10 00:02:19;;;;;;;53.00;48.20;;;;;;;4.98;95.33;96255.59;109619;1270;22406;31
2023/03/10 00:05:06;;;;;;;50.50;46.10;;;;;;;5.06;95.32;96254.29;109851;1267;22701;31
2023/03/10 00:07:39;;;;;;;57.40;52.20;;;;;;;5.12;95.57;96253.67;109911;1270;22449;31
2023/03/10 00:10:14;;;;;;;52.90;48.40;;;;;;;5.18;95.85;96257.05;108582;1270;22361;31
2023/03/10 00:12:47;;;;;;;48.70;44.40;;;;;;;5.26;95.98;96248.46;104709;1268;22465;-81
2023/03/10 00:15:22;;;;;;;48.80;44.30;;;;;;;5.35;95.94;96239.44;109793;1270;22342;31
2023/03/10 00:17:55;;;;;;;42.60;38.40;;;;;;;5.38;96.28;96238.39;101650;1270;22452;-80
2023/03/10 00:20:23;;;;;;;41.90;38.10;;;;;;;5.45;96.20;96248.11;109052;1273;22556;-90
2023/03/10 00:22:51;;;;;;;40.90;37.20;;;;;;;5.45;96.29;96242.45;108781;1288;22124;-86
2023/03/10 00:25:27;;;;;;;43.50;39.50;;;;;;;5.48;96.28;96244.58;109560;1266;22238;31
2023/03/10 00:28:01;;;;;;;48.30;43.90;;;;;;;5.53;96.47;96238.35;109818;1272;22617;-89
2023/03/10 00:30:29;;;;;;;54.50;49.90;;;;;;;5.51;96.24;96222.69;109663;1270;23852;-90
2023/03/10 00:33:23;;;;;;;43.10;39.20;;;;;;;5.59;96.13;96225.36;109492;1266;22673;31
2023/03/10 00:36:04;;;;;;;43.20;39.30;;;;;;;5.59;96.01;96217.29;109344;1290;22507;-88
2023/03/10 00:38:33;;;;;;;45.30;40.80;;;;;;;5.61;95.97;96217.23;108942;1290;23458;-92
2023/03/10 00:41:05;;;;;;;51.30;46.50;;;;;;;5.63;96.05;96209.70;108956;1290;24174;-91
2023/03/10 00:43:34;;;;;;;61.50;56.00;;;;;;;5.63;96.04;96210.57;108276;1290;22606;-91
2023/03/10 00:46:03;;;;;;;62.60;56.90;;;;;;;5.58;96.04;96204.11;108492;1290;22597;-92
2023/03/10 00:48:31;;;;;;;51.30;46.80;;;;;;;5.55;96.13;96206.54;108041;1290;22979;-91
2023/03/10 00:51:00;;;;;;;47.90;43.60;;;;;;;5.46;95.90;96205.93;107804;1282;24204;-91
2023/03/10 00:53:29;;;;;;;47.60;43.30;;;;;;;5.33;96.08;96207.00;108058;1289;22558;-90
2023/03/10 00:56:07;;;;;;;49.20;44.60;;;;;;;5.31;96.17;96204.13;107977;1289;22562;-90
2023/03/10 00:58:36;;;;;;;48.90;44.50;;;;;;;5.28;96.10;96199.06;108003;1289;22592;-89
2023/03/10 01:01:14;;;;;;;50.90;46.50;;;;;;;5.19;96.07;96178.68;107258;1289;22519;-91
2023/03/10 01:03:42;;;;;;;53.00;48.20;;;;;;;5.13;96.05;96177.98;107264;1290;23446;-94
2023/03/10 01:06:11;;;;;;;59.00;53.90;;;;;;;5.08;96.18;96176.73;108666;1289;24340;-88
2023/03/10 01:08:39;;;;;;;52.50;48.00;;;;;;;5.05;96.28;96177.90;108434;1289;25429;-92
2023/03/10 01:11:07;;;;;;;46.60;42.60;;;;;;;5.06;96.48;96184.65;109175;1272;22182;-89
2023/03/10 01:13:35;;;;;;;47.40;43.30;;;;;;;5.08;96.45;96187.34;109307;1286;22592;-86
2023/03/10 01:16:07;;;;;;;47.40;43.30;;;;;;;5.10;96.62;96189.27;109128;1270;25409;-92
2023/03/10 01:18:35;;;;;;;46.80;42.80;;;;;;;5.09;96.30;96191.84;109048;1288;23049;-89
2023/03/10 01:21:05;;;;;;;51.00;46.60;;;;;;;5.08;96.19;96192.73;109598;1276;22585;-85
2023/03/10 01:23:33;;;;;;;48.20;44.20;;;;;;;5.02;96.44;96191.77;109539;1270;22568;-86
2023/03/10 01:26:01;;;;;;;50.50;45.90;;;;;;;4.93;96.53;96182.88;108966;1289;26685;-92
2023/03/10 01:28:29;;;;;;;43.60;39.70;;;;;;;4.96;97.02;96183.72;108719;1288;22570;-90
2023/03/10 01:30:57;;;;;;;37.60;34.20;;;;;;;5.03;97.12;96185.43;108455;1289;22567;-92
2023/03/10 01:33:25;;;;;;;38.40;34.80;;;;;;;5.11;97.04;96181.33;109026;1289;22589;-90
2023/03/10 01:35:53;;;;;;;39.90;36.20;;;;;;;5.15;97.11;96168.27;108828;1289;22636;-91
2023/03/10 01:38:21;;;;;;;39.10;35.30;;;;;;;5.23;97.38;96165.61;108040;1289;22554;-90
2023/03/10 01:40:49;;;;;;;43.80;40.00;;;;;;;5.29;97.61;96164.54;107069;1289;22635;-87
2023/03/10 01:43:27;;;;;;;42.10;38.50;;;;;;;5.36;97.54;96159.23;107230;1277;22926;-90
2023/03/10 01:45:55;;;;;;;37.90;34.40;;;;;;;5.39;97.73;96156.77;107608;1289;22561;-89
2023/03/10 01:48:23;;;;;;;39.50;35.90;;;;;;;5.39;97.68;96153.80;108821;1289;22553;-92
2023/03/10 01:50:54;;;;;;;34.50;31.40;;;;;;;5.44;97.71;96150.05;107627;1289;22565;-92
2023/03/10 01:53:25;;;;;;;32.20;29.40;;;;;;;5.53;97.99;96146.19;108570;1289;23249;-93
2023/03/10 01:56:04;;;;;;;32.10;29.30;;;;;;;5.60;97.73;96148.23;108216;1289;24386;-91
2023/03/10 01:58:39;;;;;;;36.20;32.90;;;;;;;5.63;97.56;96146.30;108292;1289;22555;-92
2023/03/10 02:01:09;;;;;;;31.30;28.40;;;;;;;5.59;97.60;96142.52;108026;1289;22948;-90
2023/03/10 02:03:52;;;;;;;29.80;27.00;;;;;;;5.61;97.70;96141.89;108891;1289;22585;-88
2023/03/10 02:06:22;;;;;;;28.30;25.80;;;;;;;5.67;98.05;96141.14;109614;1289;22172;-87
2023/03/10 02:08:56;;;;;;;31.30;28.30;;;;;;;5.76;98.19;96136.23;109095;1289;22925;-90
2023/03/10 02:11:24;;;;;;;28.00;25.40;;;;;;;5.84;98.01;96141.83;108216;1290;24273;-89
2023/03/10 02:13:53;;;;;;;28.90;26.20;;;;;;;5.94;98.06;96139.66;107897;1290;23189;-90
2023/03/10 02:16:21;;;;;;;29.50;26.80;;;;;;;6.01;98.19;96139.16;109427;1289;22552;-89
2023/03/10 02:18:50;;;;;;;32.30;29.00;;;;;;;6.07;98.27;96134.31;109497;1289;23478;-89
2023/03/10 02:21:49;;;;;;;29.40;26.50;;;;;;;6.08;98.02;96122.24;109522;1267;22156;-91
2023/03/10 02:24:51;;;;;;;25.50;23.00;;;;;;;6.14;98.02;96124.47;109494;1273;23945;31
2023/03/10 02:27:23;;;;;;;25.10;22.90;;;;;;;6.18;97.62;96123.42;108362;1287;22574;-89
2023/03/10 02:30:09;;;;;;;30.40;27.70;;;;;;;6.20;97.50;96122.59;108968;1271;25909;-93
2023/03/10 02:32:41;;;;;;;27.40;25.00;;;;;;;6.18;97.33;96126.63;109414;1273;22691;-87
2023/03/10 02:35:11;;;;;;;29.90;27.20;;;;;;;6.12;97.37;96121.21;109327;1287;22549;-89
2023/03/10 02:37:49;;;;;;;37.00;34.00;;;;;;;6.06;97.47;96118.94;109443;1284;22548;-89
2023/03/10 02:40:39;;;;;;;32.50;29.30;;;;;;;6.06;97.58;96124.55;109725;1273;23017;-89
2023/03/10 02:43:28;;;;;;;29.20;26.60;;;;;;;6.02;97.02;96123.61;109632;1260;22233;31
2023/03/10 02:46:07;;;;;;;30.80;28.20;;;;;;;5.93;97.05;96124.87;109668;1270;22146;31
2023/03/10 02:48:44;;;;;;;32.00;29.20;;;;;;;5.75;96.46;96124.14;109719;1271;23969;31
2023/03/10 02:51:44;;;;;;;33.10;30.20;;;;;;;5.52;96.37;96117.93;105264;1271;23160;31
2023/03/10 02:54:14;;;;;;;34.80;31.70;;;;;;;5.44;97.13;96117.92;109175;1289;22183;-91
2023/03/10 02:56:50;;;;;;;31.70;28.80;;;;;;;5.45;97.53;96111.59;109249;1275;22338;31
2023/03/10 02:59:26;;;;;;;33.70;30.70;;;;;;;5.47;97.24;96105.23;101541;1270;22386;31
2023/03/10 03:01:54;;;;;;;33.00;30.00;;;;;;;5.40;96.59;96099.13;109500;1283;22670;-90
2023/03/10 03:04:22;;;;;;;26.10;23.80;;;;;;;5.33;96.52;96096.71;109601;1290;22557;-87
2023/03/10 03:06:51;;;;;;;31.50;28.80;;;;;;;5.15;96.23;96096.02;109391;1287;22647;-87
2023/03/10 03:09:25;;;;;;;32.40;29.70;;;;;;;5.03;96.42;96091.85;109627;1274;22261;-86
2023/03/10 03:11:53;;;;;;;30.00;27.20;;;;;;;4.92;96.33;96082.56;109210;1272;22714;-92
2023/03/10 03:14:27;;;;;;;30.30;27.30;;;;;;;4.74;96.48;96083.94;109564;1270;22486;-84
2023/03/10 03:16:55;;;;;;;30.80;28.20;;;;;;;4.54;96.52;96080.95;109191;1288;22795;-93
2023/03/10 03:19:23;;;;;;;29.30;26.30;;;;;;;4.54;97.06;96078.48;108291;1289;22544;-91
2023/03/10 03:21:52;;;;;;;26.70;24.30;;;;;;;4.58;96.97;96081.77;108313;1289;22632;-90
2023/03/10 03:24:21;;;;;;;25.90;23.50;;;;;;;4.62;97.44;96083.02;107633;1288;22575;-93
2023/03/10 03:26:49;;;;;;;27.00;24.50;;;;;;;4.65;97.28;96085.42;107453;1289;24409;-92
2023/03/10 03:29:20;;;;;;;31.50;28.80;;;;;;;4.61;96.65;96087.30;107195;1289;23996;-89
2023/03/10 03:31:48;;;;;;;28.60;26.00;;;;;;;4.43;96.30;96083.77;106767;1289;22690;-89
2023/03/10 03:34:22;;;;;;;30.70;27.90;;;;;;;4.39;97.13;96080.67;106705;1289;24761;-89
2023/03/10 03:36:52;;;;;;;26.80;24.00;;;;;;;4.49;97.61;96080.55;107246;1289;22579;-89
2023/03/10 03:39:25;;;;;;;25.10;22.80;;;;;;;4.62;98.08;96079.38;107315;1289;22559;-87
2023/03/10 03:41:57;;;;;;;27.50;24.90;;;;;;;4.71;97.29;96073.50;106834;1289;22527;-87
2023/03/10 03:44:28;;;;;;;30.50;27.70;;;;;;;4.59;96.84;96071.23;106540;1288;23278;-87
2023/03/10 03:46:56;;;;;;;21.10;19.10;;;;;;;4.45;96.92;96069.60;105939;1289;22559;-87
2023/03/10 03:49:25;;;;;;;43.50;40.10;;;;;;;4.35;97.36;96065.36;106765;1289;22588;-91
2023/03/10 03:51:53;;;;;;;47.90;44.40;;;;;;;4.32;97.26;96058.16;107695;1288;24342;-88
2023/03/10 03:54:22;;;;;;;26.00;23.70;;;;;;;4.38;97.63;96057.81;108867;1288;23157;-88
2023/03/10 03:56:51;;;;;;;25.60;23.10;;;;;;;4.44;97.38;96053.71;109205;1268;22543;-88
2023/03/10 03:59:24;;;;;;;22.00;19.80;;;;;;;4.47;97.33;96049.70;109122;1269;22395;31
2023/03/10 04:02:31;;;;;;;29.00;26.50;;;;;;;4.49;97.35;96044.14;109049;1267;24352;31
2023/03/10 04:05:00;;;;;;;29.00;26.30;;;;;;;4.48;97.07;96041.73;109512;1267;23360;-90
2023/03/10 04:07:28;;;;;;;30.60;27.90;;;;;;;4.45;97.12;96036.38;107505;1285;23081;-91
2023/03/10 04:09:56;;;;;;;46.10;42.20;;;;;;;4.38;96.93;96035.80;108475;1273;22650;-88
2023/03/10 04:12:26;;;;;;;27.00;24.40;;;;;;;4.32;96.99;96034.51;107853;1290;22582;-88
2023/03/10 04:14:54;;;;;;;29.00;26.30;;;;;;;4.24;97.09;96027.65;106569;1290;22593;-89
2023/03/10 04:17:22;;;;;;;25.80;23.40;;;;;;;4.22;96.98;96024.24;106870;1290;22560;-91
2023/03/10 04:19:50;;;;;;;28.20;25.70;;;;;;;4.16;96.89;96025.61;106726;1289;24271;-90
2023/03/10 04:22:35;;;;;;;27.20;24.90;;;;;;;4.03;96.96;96023.23;106651;1289;22585;-90
2023/03/10 04:25:05;;;;;;;28.20;25.80;;;;;;;3.88;97.13;96019.26;106793;1290;25274;-90
2023/03/10 04:27:34;;;;;;;26.60;24.30;;;;;;;3.77;97.28;96017.32;106911;1290;22555;-89
2023/03/10 04:30:04;;;;;;;24.70;22.60;;;;;;;3.77;97.85;96009.67;107051;1284;22568;-90
2023/03/10 04:32:33;;;;;;;22.30;20.10;;;;;;;3.80;97.61;96000.38;107182;1290;24315;-88
2023/03/10 04:35:04;;;;;;;34.10;31.10;;;;;;;3.79;97.22;95994.20;106917;1290;24776;-89
2023/03/10 04:37:33;;;;;;;27.20;24.60;;;;;;;3.72;97.06;95990.85;107082;1290;22668;-90
2023/03/10 04:40:08;;;;;;;24.80;22.40;;;;;;;3.61;97.16;95991.95;106836;1290;22540;-90
2023/03/10 04:42:36;;;;;;;31.10;28.30;;;;;;;3.47;97.19;95988.38;108135;1283;22309;-85
2023/03/10 04:45:05;;;;;;;20.80;18.90;;;;;;;3.33;97.22;95987.06;109795;1273;22387;-86
2023/03/10 04:47:33;;;;;;;24.20;22.10;;;;;;;3.22;97.66;95980.85;109789;1285;22667;-88
2023/03/10 04:50:01;;;;;;;47.60;43.90;;;;;;;3.24;97.90;95980.15;109715;1288;22563;-88
2023/03/10 04:52:30;;;;;;;20.20;18.50;;;;;;;3.28;98.32;95982.05;109586;1288;22563;-89
2023/03/10 04:54:58;;;;;;;35.50;32.30;;;;;;;3.41;98.79;95979.02;107192;1288;23331;-89
2023/03/10 04:57:26;;;;;;;21.20;19.40;;;;;;;3.47;97.65;95976.45;107087;1288;23941;-88
2023/03/10 04:59:54;;;;;;;17.20;15.70;;;;;;;3.39;97.96;95976.88;107284;1288;24301;-91
2023/03/10 05:02:23;;;;;;;18.80;17.10;;;;;;;3.40;98.37;95978.34;109438;1288;22569;-93
2023/03/10 05:04:52;;;;;;;21.70;19.60;;;;;;;3.44;98.33;95976.17;109460;1288;23305;-90
2023/03/10 05:07:21;;;;;;;19.40;17.40;;;;;;;3.36;98.11;95973.44;108215;1266;22573;-89
2023/03/10 05:09:51;;;;;;;19.60;17.60;;;;;;;3.30;98.55;95971.97;109115;1288;23635;-89
2023/03/10 05:12:19;;;;;;;24.10;21.90;;;;;;;3.25;98.53;95963.98;108332;1288;22820;-89
2023/03/10 05:14:47;;;;;;;24.50;22.20;;;;;;;3.18;98.41;95963.47;108237;1288;26640;-86
2023/03/10 05:17:15;;;;;;;22.60;20.40;;;;;;;3.15;98.78;95961.93;107902;1288;22586;-88
2023/03/10 05:19:44;;;;;;;21.10;19.10;;;;;;;3.13;98.69;95957.47;106588;1287;25282;-85
2023/03/10 05:22:12;;;;;;;17.80;15.80;;;;;;;3.18;98.98;95955.02;106388;1283;25399;-88
2023/03/10 05:24:41;;;;;;;26.30;23.90;;;;;;;3.22;98.93;95950.82;106673;1288;22590;-85
2023/03/10 05:27:10;;;;;;;19.80;18.00;;;;;;;3.28;98.78;95949.00;106355;1288;24207;-86
2023/03/10 05:29:40;;;;;;;22.20;20.10;;;;;;;3.28;98.78;95943.36;106885;1288;22556;-86
2023/03/10 05:32:15;;;;;;;17.70;16.00;;;;;;;3.25;98.88;95943.42;106945;1281;22745;-88
2023/03/10 05:34:44;;;;;;;15.60;14.00;;;;;;;3.23;99.40;95945.61;106821;1288;23205;-87
2023/03/10 05:37:12;;;;;;;19.70;17.90;;;;;;;3.21;99.38;95940.48;106866;1289;23944;-87
2023/03/10 05:39:42;;;;;;;22.20;20.10;;;;;;;3.19;99.21;95935.52;107147;1289;24295;-87
2023/03/10 05:42:12;;;;;;;20.90;19.10;;;;;;;3.24;99.71;95931.48;107051;1284;23170;-87
2023/03/10 05:44:41;;;;;;;20.60;18.50;;;;;;;3.29;99.78;95923.41;107229;1288;22574;-88
2023/03/10 05:47:10;;;;;;;23.00;20.80;;;;;;;3.41;99.79;95922.14;107417;1288;22555;-90
2023/03/10 05:49:38;;;;;;;16.70;15.10;;;;;;;3.75;100.00;95913.31;106881;1288;24233;-86
2023/03/10 05:52:08;;;;;;;17.60;15.90;;;;;;;4.20;100.00;95901.66;107229;1288;23178;-86
2023/03/10 05:54:37;;;;;;;17.00;14.90;;;;;;;4.54;100.00;95905.67;107410;1280;23971;-93
2023/03/10 05:57:05;;;;;;;17.90;14.20;;;;;;;4.72;100.00;95904.73;107856;1288;22533;-90
2023/03/10 05:59:33;;;;;;;15.60;13.70;;;;;;;4.81;99.94;95901.21;107638;1288;25410;-88
2023/03/10 06:02:01;;;;;;;16.70;15.10;;;;;;;4.85;99.95;95896.48;107570;1288;22600;-89
2023/03/10 06:04:32;;;;;;;17.00;15.20;;;;;;;4.91;100.00;95892.73;108037;1288;22559;-85
2023/03/10 06:07:01;;;;;;;17.10;15.50;;;;;;;4.99;100.00;95894.06;106904;1288;24651;-92
2023/03/10 06:09:31;;;;;;;17.40;15.60;;;;;;;5.11;100.00;95893.14;107339;1288;22615;-89
2023/03/10 06:11:59;;;;;;;13.70;12.00;;;;;;;5.23;100.00;95890.26;106499;1288;22699;-90
2023/03/10 06:14:27;;;;;;;15.10;13.50;;;;;;;5.35;100.00;95888.89;106651;1288;27008;-86
2023/03/10 06:16:56;;;;;;;14.50;12.60;;;;;;;5.46;100.00;95885.80;106980;1282;22664;-87
2023/03/10 06:19:25;;;;;;;15.20;13.70;;;;;;;5.59;100.00;95884.36;106967;1288;25412;-87
2023/03/10 06:21:53;;;;;;;16.60;14.80;;;;;;;5.63;100.00;95870.49;107355;1288;25367;-88
2023/03/10 06:24:21;;;;;;;17.70;18.70;;;;;;;5.89;100.00;95883.16;106937;1288;24216;-87
2023/03/10 06:26:49;;;;;;;15.60;14.00;;;;;;;6.07;100.00;95883.38;106883;1288;22537;-87
2023/03/10 06:29:17;;;;;;;16.70;15.00;;;;;;;6.22;100.00;95876.75;106698;1288;22496;-89
2023/03/10 06:31:45;;;;;;;18.90;15.80;;;;;;;6.37;100.00;95876.81;106446;1288;22587;-90
2023/03/10 06:34:13;;;;;;;17.00;14.20;;;;;;;6.52;100.00;95878.77;106582;1288;22647;-89
2023/03/10 06:36:42;;;;;;;17.40;15.30;;;;;;;6.68;100.00;95874.61;106339;1288;22539;-89
2023/03/10 06:39:10;;;;;;;15.20;13.50;;;;;;;6.81;100.00;95872.73;106672;1288;22655;-90
2023/03/10 06:41:38;;;;;;;15.70;14.00;;;;;;;6.96;100.00;95872.93;107310;1288;23301;-88
2023/03/10 06:44:06;;;;;;;17.50;15.40;;;;;;;7.07;99.84;95868.98;107042;1288;22657;-90
2023/03/10 06:46:34;;;;;;;16.10;14.40;;;;;;;7.14;99.76;95869.70;106622;1288;22751;-91
2023/03/10 06:49:02;;;;;;;14.40;12.90;;;;;;;7.20;99.93;95861.19;106733;1288;22849;-90
2023/03/10 06:51:30;;;;;;;18.90;16.70;;;;;;;7.24;99.77;95864.62;106465;1281;22664;-88
2023/03/10 06:53:58;;;;;;;27.00;24.40;;;;;;;7.26;99.67;95860.98;106520;1288;24070;-89
2023/03/10 06:56:26;;;;;;;23.00;20.70;;;;;;;7.34;99.55;95853.33;106502;1288;25409;-89
2023/03/10 06:58:54;;;;;;;22.10;19.90;;;;;;;7.41;99.53;95854.16;106455;1288;24762;-89
2023/03/10 07:01:25;;;;;;;20.00;18.00;;;;;;;7.53;99.22;95851.05;106489;1288;22524;-85
2023/03/10 07:03:53;;;;;;;14.60;13.10;;;;;;;7.63;99.09;95850.35;106478;1288;22558;-83
2023/03/10 07:06:22;;;;;;;14.50;13.10;;;;;;;7.70;99.24;95851.66;106462;1288;22639;-87
2023/03/10 07:08:51;;;;;;;15.80;14.30;;;;;;;7.82;99.27;95848.91;106648;1288;22667;-89
2023/03/10 07:11:21;;;;;;;18.70;16.70;;;;;;;7.94;99.27;95846.95;106597;1288;22670;-88
2023/03/10 07:13:49;;;;;;;18.70;16.80;;;;;;;8.07;99.15;95841.41;107490;1288;22778;-92
2023/03/10 07:16:17;;;;;;;19.00;17.00;;;;;;;8.25;99.03;95834.02;107305;1288;22646;-87
2023/03/10 07:18:45;;;;;;;21.20;19.00;;;;;;;8.44;98.33;95836.67;106437;1288;22537;-87
2023/03/10 07:21:16;;;;;;;21.80;17.30;;;;;;;8.64;98.17;95828.55;106517;1288;22550;-85
2023/03/10 07:23:50;;;;;;;18.40;14.40;;;;;;;8.69;97.74;95803.32;106772;1267;22045;31
2023/03/10 07:26:23;;;;;;;17.20;12.90;;;;;;;9.00;95.60;95818.34;106189;1263;22421;31
2023/03/10 07:28:57;;;;;;;17.00;10.50;;;;;;;9.18;95.38;95820.63;109527;1270;22396;31
2023/03/10 07:31:31;;;;;;;13.10;9.50;;;;;;;9.19;93.84;95793.95;109621;1275;22329;31
2023/03/10 07:34:00;;;;;;;;;;;;;;;9.58;93.75;95813.01;108993;1267;25653;-87
2023/03/10 07:36:28;;;;;;;11.60;7.20;;;;;;;9.80;92.81;95810.77;108412;1290;23811;-87
2023/03/10 07:38:57;;;;;;;8.70;6.40;;;;;;;10.00;92.70;95808.27;109058;1266;22457;-90
2023/03/10 07:41:25;;;;;;;8.40;6.70;;;;;;;10.19;92.72;95803.20;108472;1267;22649;-89
2023/03/10 07:43:54;;;;;;;7.80;4.80;;;;;;;10.42;90.44;95806.23;108491;1286;26668;-88
2023/03/10 07:46:22;;;;;;;8.80;5.10;;;;;;;10.64;87.78;95803.15;108347;1289;23302;-92
2023/03/10 07:48:51;;;;;;;6.50;4.20;;;;;;;10.85;85.37;95814.39;107613;1284;23656;-90
2023/03/10 07:51:24;;;;;;;5.90;3.40;;;;;;;11.03;85.09;95810.86;106759;1281;23990;-89
2023/03/10 07:54:01;;;;;;;6.30;4.20;;;;;;;11.15;81.36;95810.73;108035;1270;22361;-82
2023/03/10 07:56:52;;;;;;;6.80;3.10;;;;;;;11.20;75.42;95810.84;109435;1266;22600;31
2023/03/10 07:59:41;;;;;;;8.60;3.70;;;;;;;11.34;74.66;95810.83;109770;1270;23828;-89
2023/03/10 08:02:14;;;;;;;10.30;4.00;;;;;;;11.50;77.55;95813.05;108930;1289;22569;-88
2023/03/10 08:05:03;;;;;;;8.80;3.50;;;;;;;11.63;76.16;95802.83;109596;1270;23608;31
2023/03/10 08:07:31;;;;;;;7.10;3.40;;;;;;;11.82;74.47;95802.02;108437;1271;22731;-87
2023/03/10 08:10:00;;;;;;;5.60;3.20;;;;;;;12.00;70.87;95796.82;107972;1288;23591;-89
2023/03/10 08:12:28;;;;;;;5.30;3.50;;;;;;;12.16;68.39;95795.09;107692;1288;22579;-88
2023/03/10 08:14:56;;;;;;;5.90;3.50;;;;;;;12.33;69.71;95790.83;107809;1288;22481;-89
2023/03/10 08:17:29;;;;;;;8.30;3.00;;;;;;;12.50;68.28;95789.32;107355;1288;22818;-87
2023/03/10 08:19:58;;;;;;;6.40;3.10;;;;;;;12.63;64.99;95789.36;108052;1288;22652;-88
2023/03/10 08:22:27;;;;;;;7.40;3.30;;;;;;;12.68;62.89;95779.55;108507;1288;22581;-87
2023/03/10 08:24:55;;;;;;;5.60;3.30;;;;;;;12.74;64.84;95787.76;108265;1288;22558;-90
2023/03/10 08:27:25;;;;;;;6.20;3.80;;;;;;;12.79;62.84;95787.43;108030;1288;24188;-86
2023/03/10 08:29:57;;;;;;;7.20;4.00;;;;;;;12.85;64.83;95779.95;108683;1288;22621;-86
2023/03/10 08:32:25;;;;;;;7.20;3.50;;;;;;;12.92;63.26;95776.90;108271;1288;22730;-89
2023/03/10 08:34:53;;;;;;;7.20;3.00;;;;;;;12.98;62.28;95775.58;108245;1288;22562;-90
2023/03/10 08:37:22;;;;;;;15.40;10.50;;;;;;;13.03;63.29;95776.48;107498;1288;22639;-92
2023/03/10 08:39:52;;;;;;;7.70;6.40;;;;;;;13.10;63.65;95773.58;107500;1288;22575;-89
2023/03/10 08:42:20;;;;;;;7.30;4.10;;;;;;;13.17;62.41;95776.06;107516;1288;22733;-94
2023/03/10 08:44:49;;;;;;;26.00;23.50;;;;;;;13.22;60.67;95779.05;107890;1289;23224;-92
2023/03/10 08:47:17;;;;;;;7.30;5.60;;;;;;;13.23;60.11;95780.39;108232;1289;24027;-92
2023/03/10 08:49:45;;;;;;;10.80;8.10;;;;;;;13.28;59.65;95776.30;108531;1289;22501;-90
2023/03/10 08:52:16;;;;;;;11.70;9.80;;;;;;;13.35;59.93;95774.21;108294;1289;23181;-89
2023/03/10 08:54:44;;;;;;;10.00;6.10;;;;;;;13.45;59.32;95774.41;108379;1289;23215;-90
2023/03/10 08:57:12;;;;;;;8.40;5.80;;;;;;;13.58;59.69;95777.27;107808;1289;22548;-93
2023/03/10 08:59:40;;;;;;;6.60;3.60;;;;;;;13.74;58.17;95774.20;108102;1288;22742;-91
2023/03/10 09:02:13;;;;;;;6.90;3.50;;;;;;;13.89;59.08;95769.77;106841;1289;25316;-90
2023/03/10 09:04:41;;;;;;;7.70;4.20;;;;;;;14.04;59.40;95765.13;106925;1289;24280;-88
2023/03/10 09:07:09;;;;;;;5.10;3.10;;;;;;;14.18;59.55;95760.38;107025;1289;24214;-84
2023/03/10 09:09:37;;;;;;;6.60;3.60;;;;;;;14.34;57.91;95763.98;108650;1289;22640;-87
2023/03/10 09:12:07;;;;;;;55.40;50.00;;;;;;;14.44;57.33;95755.56;106450;1289;25414;-86
2023/03/10 09:14:36;;;;;;;20.10;17.40;;;;;;;14.50;57.11;95760.73;106621;1289;25255;-88
2023/03/10 09:17:05;;;;;;;12.40;10.20;;;;;;;14.51;56.26;95761.65;106496;1289;25477;-88
2023/03/10 09:19:33;;;;;;;4.20;3.00;;;;;;;14.48;56.63;95759.30;106636;1289;22785;-85
2023/03/10 09:22:01;;;;;;;7.50;5.90;;;;;;;14.45;55.95;95756.11;106550;1289;24440;-89
2023/03/10 09:24:29;;;;;;;6.10;3.30;;;;;;;14.40;56.16;95757.77;106698;1289;22602;-88
2023/03/10 09:26:57;;;;;;;5.40;3.40;;;;;;;14.38;56.13;95758.21;106709;1289;22649;-89
2023/03/10 09:29:28;;;;;;;7.00;3.80;;;;;;;14.38;56.96;95758.36;106511;1289;22522;-88
2023/03/10 09:32:10;;;;;;;11.20;7.20;;;;;;;14.41;57.07;95758.55;106701;1289;23952;-89
2023/03/10 09:34:38;;;;;;;9.70;4.30;;;;;;;14.53;56.13;95753.95;106911;1266;25638;-87
2023/03/10 09:37:07;;;;;;;5.30;3.30;;;;;;;14.59;54.74;95758.02;106829;1289;22697;-87
2023/03/10 09:39:36;;;;;;;4.20;3.00;;;;;;;14.61;54.16;95751.28;106605;1289;25910;-86
2023/03/10 09:42:33;;;;;;;4.70;3.00;;;;;;;14.65;53.59;95754.26;106693;1289;22530;-89
2023/03/10 09:45:19;;;;;;;11.20;8.90;;;;;;;14.71;53.31;95753.60;107041;1289;25426;-85
2023/03/10 09:48:11;;;;;;;5.80;4.80;;;;;;;14.72;53.30;95751.44;107063;1286;24281;-90
2023/03/10 09:50:43;;;;;;;5.10;3.60;;;;;;;14.75;53.40;95748.52;106746;1289;22601;-89
2023/03/10 09:53:42;;;;;;;8.70;6.10;;;;;;;14.77;53.74;95745.89;106589;1289;22492;-88
2023/03/10 09:56:14;;;;;;;9.00;7.60;;;;;;;14.87;53.47;95749.36;106646;1289;25398;-86
2023/03/10 09:58:46;;;;;;;5.70;3.40;;;;;;;14.95;52.95;95741.42;106498;1289;22573;-88
2023/03/10 10:01:22;;;;;;;6.10;3.20;;;;;;;15.01;52.91;95743.46;106884;1289;24212;-88
2023/03/10 10:03:54;;;;;;;5.90;3.70;;;;;;;15.06;52.95;95737.14;106526;1289;22567;-90
2023/03/10 10:06:25;;;;;;;8.30;6.50;;;;;;;15.14;53.17;95737.34;106614;1289;25407;-88
2023/03/10 10:08:59;;;;;;;6.70;3.20;;;;;;;15.29;54.16;95737.79;106787;1289;22661;-87
2023/03/10 10:11:38;;;;;;;9.20;7.10;;;;;;;15.57;53.91;95729.50;106550;1289;23248;-87
2023/03/10 10:14:18;;;;;;;8.90;4.80;;;;;;;15.83;52.57;95732.77;106749;1289;23958;-88
2023/03/10 10:17:01;;;;;;;5.20;3.50;;;;;;;16.03;52.10;95726.11;106908;1289;22642;-88
2023/03/10 10:19:31;;;;;;;6.00;3.30;;;;;;;16.21;51.66;95726.98;106935;1289;26656;-87
2023/03/10 10:22:16;;;;;;;5.10;2.90;;;;;;;16.34;51.19;95725.74;107003;1289;23537;-89
2023/03/10 10:25:17;;;;;;;5.90;3.80;;;;;;;16.41;50.43;95722.95;107045;1289;180049;-88
2023/03/10 10:27:47;;;;;;;7.00;4.60;;;;;;;16.41;51.10;95725.04;107112;1289;23939;-89
2023/03/10 10:30:25;;;;;;;7.70;3.60;;;;;;;16.36;50.62;95715.34;107190;1276;23501;-89
2023/03/10 10:33:05;;;;;;;6.90;3.60;;;;;;;16.17;50.35;95716.89;107126;1289;26917;-90
2023/03/10 10:35:36;;;;;;;9.10;6.10;;;;;;;16.04;50.22;95717.35;107140;1289;25366;-88
2023/03/10 10:38:12;;;;;;;6.10;3.60;;;;;;;15.95;49.62;95716.95;107256;1289;24952;-88
2023/03/10 10:40:49;;;;;;;7.60;4.90;;;;;;;15.87;49.78;95710.89;106864;1286;23754;-91
2023/03/10 10:43:19;;;;;;;6.50;3.60;;;;;;;15.83;49.64;95706.08;106882;1289;22554;-88
2023/03/10 10:45:53;;;;;;;9.90;3.90;;;;;;;15.91;50.06;95701.91;107277;1289;22554;-88
2023/03/10 10:48:41;;;;;;;6.90;4.70;;;;;;;16.03;50.29;95697.56;107248;1289;22572;-91
2023/03/10 10:51:28;;;;;;;7.40;4.20;;;;;;;16.06;50.16;95694.77;107209;1289;22989;-90
2023/03/10 10:54:17;;;;;;;5.60;3.50;;;;;;;16.06;50.32;95693.84;108007;1289;22651;-91
2023/03/10 10:56:57;;;;;;;6.40;3.10;;;;;;;16.08;49.83;95685.99;107198;1289;26808;-89
2023/03/10 10:59:31;;;;;;;6.00;3.10;;;;;;;16.10;49.26;95682.81;107474;1289;22780;-89
2023/03/10 11:02:23;;;;;;;6.60;3.30;;;;;;;16.13;49.44;95676.84;108975;1289;22671;-94
2023/03/10 11:04:51;;;;;;;5.90;3.30;;;;;;;16.22;49.56;95674.19;109039;1289;22496;-90
2023/03/10 11:07:25;;;;;;;7.10;3.40;;;;;;;16.23;48.79;95669.54;109042;1289;22769;-90
2023/03/10 11:09:56;;;;;;;10.90;3.60;;;;;;;16.19;49.46;95667.29;109334;1289;22206;-83
2023/03/10 11:12:28;;;;;;;5.40;4.60;;;;;;;16.26;49.93;95665.41;109323;1289;22654;-88
2023/03/10 11:15:30;;;;;;;6.50;3.40;;;;;;;16.33;49.46;95663.39;109591;1267;22507;-84
2023/03/10 11:18:15;;;;;;;5.40;2.70;;;;;;;16.42;49.50;95656.77;109846;1270;22066;-87
2023/03/10 11:21:40;;;;;;;7.40;3.10;;;;;;;16.54;48.85;95650.21;109797;1267;22434;31
2023/03/10 11:24:29;;;;;;;6.60;3.50;;;;;;;16.59;48.54;95647.81;106547;1291;23221;-88
2023/03/10 11:27:18;;;;;;;6.60;3.20;;;;;;;16.67;48.25;95642.81;106748;1293;22583;-87
2023/03/10 11:30:15;;;;;;;8.10;3.70;;;;;;;16.74;47.90;95638.66;106615;1290;23099;-86
2023/03/10 11:32:49;;;;;;;6.80;3.70;;;;;;;16.82;48.55;95630.66;106307;1293;22865;-85
2023/03/10 11:35:31;;;;;;;;;;;;;;;17.00;48.53;95630.43;107832;1290;22566;-88
2023/03/10 11:38:27;;;;;;;6.30;3.60;;;;;;;17.17;47.43;95627.80;108481;1293;22634;-90
2023/03/10 11:41:01;;;;;;;6.90;3.80;;;;;;;17.24;46.15;95634.75;109005;1293;24099;-91
2023/03/10 11:46:59;;;;;;;8.60;5.20;;;;;;;16.99;44.46;95625.86;108984;1291;22575;-89
2023/03/10 11:49:35;;;;;;;9.50;6.50;;;;;;;17.00;44.50;95625.63;107795;1291;24196;-89